Time;durP1;ratioP1;P1;durP2;ratioP2;P2;SDS_P1;SDS_P2;PMS_P1;PMS_P2;Temp;Humidity;BMP_temperature;BMP_pressure;BME280_temperature;BME280_humidity;BME280_pressure;Samples;Min_cycle;Max_cycle;Signal;HPM_P1;HPM_P2
2022/05/25 00:01:46;;;;;;;3.67;3.47;;;;;;;13.66;57.88;100911.88;4921763;28;97171;-45
2022/05/25 00:04:13;;;;;;;3.57;3.37;;;;;;;13.64;57.86;100915.16;4914277;28;97520;-46
2022/05/25 00:06:38;;;;;;;4.73;4.20;;;;;;;13.61;58.07;100916.16;4914355;28;97628;-46
2022/05/25 00:09:04;;;;;;;4.00;3.77;;;;;;;13.59;57.97;100917.94;4918246;28;96686;-46
2022/05/25 00:11:29;;;;;;;3.80;3.50;;;;;;;13.57;57.89;100921.19;4911951;28;96905;-47
2022/05/25 00:13:54;;;;;;;4.40;4.10;;;;;;;13.56;58.19;100935.53;4921301;28;102200;-47
2022/05/25 00:16:20;;;;;;;3.63;3.43;;;;;;;13.53;58.11;100924.25;4913950;28;102617;-47
2022/05/25 00:21:30;;;;;;;4.33;4.00;;;;;;;13.49;58.00;100929.28;4932257;28;97077;-47
2022/05/25 00:23:56;;;;;;;3.97;3.77;;;;;;;13.47;58.03;100928.28;4929617;28;101861;-46
2022/05/25 00:26:21;;;;;;;4.47;4.17;;;;;;;13.44;57.98;100935.56;4931922;28;96990;-47
2022/05/25 00:28:46;;;;;;;3.73;3.53;;;;;;;13.44;58.02;100926.50;4922160;28;118606;-47
2022/05/25 00:31:12;;;;;;;4.10;3.80;;;;;;;13.41;58.14;100928.28;4936060;28;117806;-46
2022/05/25 00:33:38;;;;;;;4.37;4.07;;;;;;;13.39;58.22;100928.03;4932479;28;99053;-46
2022/05/25 00:36:04;;;;;;;4.10;3.83;;;;;;;13.39;57.93;100936.31;4939439;28;97497;-46
2022/05/25 00:38:29;;;;;;;4.30;4.00;;;;;;;13.35;58.18;100924.75;4908865;28;97216;-47
2022/05/25 00:40:57;;;;;;;4.53;4.20;;;;;;;13.33;58.08;100935.56;4935168;28;97667;-47
2022/05/25 00:43:22;;;;;;;3.73;3.43;;;;;;;13.29;58.28;100924.03;4942981;28;96846;-47
2022/05/25 00:45:55;;;;;;;3.97;3.67;;;;;;;13.29;58.47;100954.41;4941955;28;97018;-46
2022/05/25 00:48:27;;;;;;;4.10;3.80;;;;;;;13.26;58.17;100936.06;4941262;28;97071;-47
2022/05/25 00:53:40;;;;;;;3.97;3.77;;;;;;;13.21;58.39;100928.56;4938984;28;97022;-47
2022/05/25 00:56:08;;;;;;;4.00;3.70;;;;;;;13.19;58.40;100939.34;4937698;28;97154;-47
2022/05/25 00:58:36;;;;;;;4.50;4.20;;;;;;;13.19;58.37;100946.91;4939202;28;96863;-47
2022/05/25 01:01:01;;;;;;;4.40;4.10;;;;;;;13.19;58.28;100946.91;4939585;28;97156;-46
2022/05/25 01:03:26;;;;;;;4.23;3.83;;;;;;;13.14;58.25;100940.13;4938477;28;98934;-47
2022/05/25 01:06:08;;;;;;;3.83;3.63;;;;;;;13.12;58.75;100948.16;4943367;28;98353;-47
2022/05/25 01:08:45;;;;;;;4.83;4.43;;;;;;;13.10;58.74;100944.38;4935803;28;97024;-47
2022/05/25 01:11:35;;;;;;;3.93;3.70;;;;;;;13.06;58.61;100947.38;4935285;28;97108;-47
2022/05/25 01:14:09;;;;;;;3.90;3.60;;;;;;;13.02;58.52;100951.63;4932692;28;100676;-46
2022/05/25 01:16:40;;;;;;;4.00;3.80;;;;;;;12.97;58.53;100953.16;4938045;28;102833;-47
2022/05/25 01:19:29;;;;;;;3.80;3.60;;;;;;;12.91;58.93;100954.41;4938686;28;117878;-47
2022/05/25 01:22:08;;;;;;;3.50;3.30;;;;;;;12.89;58.73;100962.44;4938441;28;96937;-47
2022/05/25 01:25:16;;;;;;;3.57;3.37;;;;;;;12.84;58.69;100955.63;4940512;28;97298;-47
2022/05/25 01:27:45;;;;;;;3.60;3.40;;;;;;;12.84;58.48;100955.63;4899131;28;103043;-47
2022/05/25 01:30:33;;;;;;;3.80;3.50;;;;;;;12.83;59.05;100956.88;4918917;28;97234;-47
2022/05/25 01:33:01;;;;;;;3.53;3.33;;;;;;;12.79;58.43;100965.44;4922369;28;97099;-46
2022/05/25 01:35:56;;;;;;;3.97;3.67;;;;;;;12.80;59.17;100966.91;4914778;28;109020;-47
2022/05/25 01:38:28;;;;;;;3.40;3.20;;;;;;;12.83;58.82;100965.16;4916884;28;101910;-47
2022/05/25 01:41:02;;;;;;;3.97;3.77;;;;;;;12.80;58.61;100971.69;4926549;28;97187;-47
2022/05/25 01:43:42;;;;;;;3.80;3.60;;;;;;;12.77;59.10;100961.66;4933782;28;97305;-47
2022/05/25 01:46:14;;;;;;;3.37;3.17;;;;;;;12.77;58.62;100967.16;4935451;28;100628;-47
2022/05/25 01:48:41;;;;;;;4.20;3.90;;;;;;;12.75;58.34;100964.16;4935546;28;97359;-47
2022/05/25 01:51:32;;;;;;;3.90;3.67;;;;;;;12.73;59.24;100961.88;4934734;28;97441;-46
2022/05/25 01:54:01;;;;;;;3.40;3.20;;;;;;;12.72;58.53;100963.16;4933249;28;97147;-47
2022/05/25 01:56:32;;;;;;;3.30;3.10;;;;;;;12.73;58.76;100972.19;4928038;28;98306;-46
2022/05/25 01:59:02;;;;;;;2.73;2.63;;;;;;;12.73;58.47;100977.72;4937374;28;97404;-47
2022/05/25 02:01:27;;;;;;;2.97;2.80;;;;;;;12.70;58.61;100968.41;4918266;28;96932;-47
2022/05/25 02:07:00;;;;;;;3.03;2.83;;;;;;;12.64;59.06;100961.38;4913214;28;97571;-47
2022/05/25 02:09:43;;;;;;;2.90;2.80;;;;;;;12.62;59.04;100967.38;4933976;28;101669;-49
2022/05/25 02:12:23;;;;;;;3.43;3.20;;;;;;;12.60;58.98;100969.88;4933776;28;97234;-46
2022/05/25 02:15:17;;;;;;;3.43;3.23;;;;;;;12.59;58.94;100973.91;4931366;28;96868;-47
2022/05/25 02:18:08;;;;;;;2.60;2.50;;;;;;;12.59;58.92;100973.91;4924969;28;101950;-47
2022/05/25 02:20:43;;;;;;;3.30;3.10;;;;;;;12.59;58.91;100967.63;4923627;28;101683;-47
2022/05/25 02:23:25;;;;;;;2.77;2.57;;;;;;;12.58;58.85;100966.88;4922916;28;96800;-46
2022/05/25 02:25:58;;;;;;;6.10;3.30;;;;;;;12.56;58.91;100968.63;4923061;28;97317;-47
2022/05/25 02:28:29;;;;;;;4.57;3.40;;;;;;;12.51;58.78;100961.84;4922754;28;97695;-47
2022/05/25 02:30:58;;;;;;;3.80;3.60;;;;;;;12.51;58.85;100959.09;4931041;28;97199;-47
2022/05/25 02:33:29;;;;;;;3.33;3.03;;;;;;;12.52;58.82;100962.59;4925953;28;97174;-47
2022/05/25 02:35:57;;;;;;;5.93;3.00;;;;;;;12.51;58.78;100961.84;4925669;28;96817;-47
2022/05/25 02:38:24;;;;;;;2.77;2.67;;;;;;;12.51;58.79;100963.84;4919486;28;97787;-47
2022/05/25 02:40:49;;;;;;;2.93;2.80;;;;;;;12.50;58.88;100963.09;4927192;28;97356;-47
2022/05/25 02:43:15;;;;;;;3.30;3.10;;;;;;;12.52;58.83;100962.59;4930977;28;97264;-47
2022/05/25 02:45:41;;;;;;;3.37;3.17;;;;;;;12.55;58.94;100973.41;4936339;28;96708;-46
2022/05/25 02:48:07;;;;;;;3.33;3.03;;;;;;;12.57;58.77;100975.66;4936085;28;97427;-46
2022/05/25 02:50:32;;;;;;;2.73;2.50;;;;;;;12.57;58.96;100984.69;4935361;28;97322;-48
2022/05/25 02:52:57;;;;;;;2.90;2.70;;;;;;;12.59;58.98;100986.94;4936559;28;116910;-47
2022/05/25 02:55:23;;;;;;;3.23;3.03;;;;;;;12.58;59.14;100988.22;4935205;28;96833;-47
2022/05/25 02:57:49;;;;;;;3.33;3.00;;;;;;;12.55;59.20;100998.25;4932090;28;99532;-47
2022/05/25 03:00:14;;;;;;;3.10;2.90;;;;;;;12.54;58.89;101004.22;4932739;28;97498;-49
2022/05/25 03:02:40;;;;;;;3.17;2.97;;;;;;;12.54;59.12;100998.72;4931342;28;97135;-46
2022/05/25 03:05:07;;;;;;;2.80;2.60;;;;;;;12.54;58.97;101009.75;4937477;28;97019;-47
2022/05/25 03:07:34;;;;;;;2.73;2.53;;;;;;;12.51;59.06;101005.25;4932387;28;98565;-47
2022/05/25 03:10:00;;;;;;;2.67;2.37;;;;;;;12.51;59.01;101002.50;4936274;28;97182;-47
2022/05/25 03:12:25;;;;;;;2.60;2.50;;;;;;;12.49;59.16;101007.75;4941664;28;96826;-47
2022/05/25 03:14:50;;;;;;;2.50;2.40;;;;;;;12.48;58.97;101009.00;4931236;28;116336;-47
2022/05/25 03:17:16;;;;;;;4.23;2.90;;;;;;;12.48;59.17;101007.00;4936661;28;127865;-47
2022/05/25 03:19:55;;;;;;;2.40;2.30;;;;;;;12.48;59.58;101018.03;4937198;28;97492;-47
2022/05/25 03:22:22;;;;;;;2.90;2.40;;;;;;;12.49;59.22;101018.78;4931941;28;97304;-47
2022/05/25 03:24:47;;;;;;;2.37;2.27;;;;;;;12.48;59.03;101007.00;4938126;28;96975;-47
2022/05/25 03:27:13;;;;;;;2.33;2.20;;;;;;;12.48;59.25;101017.28;4931234;28;97354;-47
2022/05/25 03:29:38;;;;;;;2.60;2.00;;;;;;;12.47;59.09;101022.03;4938236;28;124219;-47
2022/05/25 03:32:04;;;;;;;2.53;2.43;;;;;;;12.48;59.23;101022.78;4936683;28;97573;-47
2022/05/25 03:34:29;;;;;;;2.60;2.50;;;;;;;12.48;59.15;101022.78;4939946;28;98055;-47
2022/05/25 03:36:55;;;;;;;2.23;2.13;;;;;;;12.49;59.33;101027.06;4938641;28;128094;-46
2022/05/25 03:39:25;;;;;;;1.90;1.80;;;;;;;12.50;59.42;101034.84;4940163;28;97060;-46
2022/05/25 03:42:07;;;;;;;2.50;2.40;;;;;;;12.48;59.69;101045.63;4940523;28;97436;-45
2022/05/25 03:44:34;;;;;;;2.37;2.20;;;;;;;12.50;59.34;101043.13;4936150;28;97329;-49
2022/05/25 03:46:59;;;;;;;2.37;2.27;;;;;;;12.51;59.20;101043.88;4936577;28;97602;-46
2022/05/25 03:49:24;;;;;;;2.07;1.97;;;;;;;12.52;59.27;101040.63;4935046;28;114382;-46
2022/05/25 03:51:50;;;;;;;2.40;2.30;;;;;;;12.51;59.13;101035.59;4938187;28;97558;-46
2022/05/25 03:54:15;;;;;;;2.40;2.20;;;;;;;12.51;59.32;101035.59;4938453;28;111672;-47
2022/05/25 03:56:41;;;;;;;1.90;1.80;;;;;;;12.50;59.09;101034.09;4941809;28;97553;-47
2022/05/25 03:59:06;;;;;;;2.10;2.00;;;;;;;12.50;59.15;101032.09;4942773;28;97215;-47
2022/05/25 04:01:34;;;;;;;2.10;1.80;;;;;;;12.50;59.06;101031.31;4940964;28;97065;-47
2022/05/25 04:04:00;;;;;;;2.23;2.13;;;;;;;12.50;59.22;101031.31;4940615;28;97447;-46
2022/05/25 04:06:25;;;;;;;1.90;1.80;;;;;;;12.49;59.11;101033.31;4937159;28;96914;-46
2022/05/25 04:08:51;;;;;;;2.13;2.03;;;;;;;12.49;59.36;101043.63;4936472;28;97441;-47
2022/05/25 04:11:17;;;;;;;2.50;2.40;;;;;;;12.50;59.28;101032.09;4939744;28;96977;-46
2022/05/25 04:13:42;;;;;;;2.60;2.40;;;;;;;12.49;59.34;101044.34;4938614;28;97201;-46
2022/05/25 04:16:07;;;;;;;2.40;2.20;;;;;;;12.49;59.49;101041.59;4939090;28;97541;-47
2022/05/25 04:18:33;;;;;;;2.47;2.30;;;;;;;12.50;59.39;101050.63;4939897;28;126588;-46
2022/05/25 04:20:58;;;;;;;2.60;2.50;;;;;;;12.51;59.56;101043.88;4943186;28;97046;-47
2022/05/25 04:23:26;;;;;;;2.40;2.30;;;;;;;12.53;59.48;101046.91;4940553;28;112451;-47
2022/05/25 04:25:53;;;;;;;2.30;2.20;;;;;;;12.55;59.41;101044.41;4941567;28;97234;-46
2022/05/25 04:28:18;;;;;;;2.10;2.00;;;;;;;12.58;59.69;101055.19;4940373;28;96913;-46
2022/05/25 04:30:43;;;;;;;2.63;2.43;;;;;;;12.61;59.49;101058.97;4936460;28;100809;-46
2022/05/25 04:33:09;;;;;;;1.97;1.87;;;;;;;12.63;59.60;101062.75;4937316;28;97068;-47
2022/05/25 04:35:34;;;;;;;2.00;1.90;;;;;;;12.65;59.61;101062.25;4940146;28;97064;-47
2022/05/25 04:37:59;;;;;;;6.17;2.40;;;;;;;12.69;59.75;101065.50;4940566;28;116400;-46
2022/05/25 04:40:51;;;;;;;2.87;2.03;;;;;;;12.71;60.30;101063.03;4943071;28;96905;-46
2022/05/25 04:43:19;;;;;;;2.07;1.97;;;;;;;12.72;59.56;101070.06;4920160;28;97278;-46
2022/05/25 04:45:47;;;;;;;2.30;2.17;;;;;;;12.74;59.56;101068.31;4926295;28;98311;-46
2022/05/25 04:48:14;;;;;;;2.27;2.17;;;;;;;12.79;59.57;101061.28;4920118;28;97275;-46
2022/05/25 04:50:42;;;;;;;3.00;2.67;;;;;;;12.83;59.77;101072.84;4933933;28;96883;-46
2022/05/25 04:53:10;;;;;;;2.07;1.97;;;;;;;12.87;59.61;101070.59;4937561;28;97184;-46
2022/05/25 04:58:33;;;;;;;2.43;2.20;;;;;;;12.94;59.73;101081.16;4932548;28;100110;-46
2022/05/25 05:00:58;;;;;;;2.30;2.20;;;;;;;12.96;59.69;101078.66;4940873;28;103685;-46
2022/05/25 05:03:25;;;;;;;2.30;2.00;;;;;;;13.01;59.75;101077.94;4939123;28;97179;-46
2022/05/25 05:05:52;;;;;;;2.67;2.57;;;;;;;13.08;59.74;101082.25;4935083;28;97563;-46
2022/05/25 05:08:17;;;;;;;2.80;2.67;;;;;;;13.14;59.90;101083.00;4930969;28;96993;-47
2022/05/25 05:10:43;;;;;;;2.97;2.77;;;;;;;13.24;60.00;101087.78;4938481;28;117046;-47
2022/05/25 05:13:08;;;;;;;2.90;2.70;;;;;;;13.31;60.00;101084.53;4930220;28;97253;-47
2022/05/25 05:15:35;;;;;;;4.77;2.40;;;;;;;13.44;59.98;101095.09;4936168;28;97545;-46
2022/05/25 05:18:01;;;;;;;2.30;2.10;;;;;;;13.52;60.05;101090.59;4921869;28;97696;-47
2022/05/25 05:20:27;;;;;;;3.17;2.87;;;;;;;13.61;60.25;101086.84;4926856;28;96891;-47
2022/05/25 05:22:52;;;;;;;2.53;2.40;;;;;;;13.67;60.18;101087.59;4927425;28;96965;-47
2022/05/25 05:25:17;;;;;;;3.13;2.90;;;;;;;13.75;60.21;101083.06;4915961;28;126466;-47
2022/05/25 05:27:45;;;;;;;8.60;2.80;;;;;;;13.83;60.28;101087.56;4921589;28;97115;-47
2022/05/25 05:30:14;;;;;;;3.00;2.80;;;;;;;13.90;60.39;101098.13;4913741;28;96774;-47
2022/05/25 05:32:39;;;;;;;3.23;3.03;;;;;;;13.95;60.43;101099.38;4909059;28;97375;-47
2022/05/25 05:35:05;;;;;;;2.87;2.67;;;;;;;14.04;60.25;101108.16;4928525;28;115337;-47
2022/05/25 05:37:35;;;;;;;3.77;3.47;;;;;;;14.18;60.45;101100.84;4935864;28;97219;-47
2022/05/25 05:40:03;;;;;;;3.40;3.20;;;;;;;14.31;60.43;101103.13;4932855;28;96830;-47
2022/05/25 05:42:28;;;;;;;3.23;2.97;;;;;;;14.41;60.32;101107.88;4936100;28;96926;-47
2022/05/25 05:45:27;;;;;;;4.13;2.93;;;;;;;14.53;61.20;101103.06;4937677;28;98274;-47
2022/05/25 05:48:01;;;;;;;3.37;3.17;;;;;;;14.61;60.43;101107.56;4934488;28;97147;-47
2022/05/25 05:50:28;;;;;;;3.70;3.40;;;;;;;14.70;60.40;101112.06;4932488;28;97003;-47
2022/05/25 05:52:54;;;;;;;8.33;4.00;;;;;;;14.79;60.29;101109.00;4937525;28;97407;-47
2022/05/25 05:55:21;;;;;;;4.17;3.73;;;;;;;14.90;60.15;101129.09;4927142;28;97719;-48
2022/05/25 05:57:47;;;;;;;5.53;3.40;;;;;;;14.99;59.93;101112.19;4937687;28;97253;-47
2022/05/25 06:00:15;;;;;;;3.97;3.67;;;;;;;15.10;60.11;101113.38;4933588;28;97327;-48
2022/05/25 06:02:41;;;;;;;4.47;4.07;;;;;;;15.19;60.14;101111.06;4936134;28;97371;-47
2022/05/25 06:05:07;;;;;;;4.10;3.80;;;;;;;15.29;60.04;101111.53;4935630;28;97829;-46
2022/05/25 06:07:32;;;;;;;3.63;3.43;;;;;;;15.35;59.97;101115.00;4936621;28;97192;-47
2022/05/25 06:09:58;;;;;;;4.03;3.73;;;;;;;15.40;59.92;101117.72;4932251;28;97333;-48
2022/05/25 06:12:23;;;;;;;4.10;3.80;;;;;;;15.48;59.91;101124.28;4935377;28;115112;-48
2022/05/25 06:14:49;;;;;;;5.70;5.27;;;;;;;15.56;59.57;101130.00;4933250;28;97032;-48
2022/05/25 06:19:59;;;;;;;5.10;4.60;;;;;;;15.71;59.61;101122.84;4936909;28;96945;-48
2022/05/25 06:22:25;;;;;;;5.40;4.87;;;;;;;15.79;59.51;101125.06;4934842;28;96990;-47
2022/05/25 06:24:52;;;;;;;5.40;5.00;;;;;;;15.85;59.50;101129.28;4932977;28;97259;-48
2022/05/25 06:27:20;;;;;;;5.40;4.80;;;;;;;15.91;59.40;101127.22;4936641;28;97219;-47
2022/05/25 06:29:48;;;;;;;8.10;5.10;;;;;;;15.99;59.46;101124.63;4933952;28;99831;-48
2022/05/25 06:32:16;;;;;;;5.50;5.00;;;;;;;16.07;59.36;101128.34;4936589;28;96929;-54
2022/05/25 06:34:47;;;;;;;5.10;4.10;;;;;;;16.12;59.26;101141.41;4934270;28;97803;-47
2022/05/25 06:37:15;;;;;;;4.97;4.57;;;;;;;16.18;59.22;101134.53;4935515;28;103509;-48
2022/05/25 06:39:41;;;;;;;5.83;5.33;;;;;;;16.25;59.12;101147.84;4938069;28;97275;-48
2022/05/25 06:42:06;;;;;;;9.40;5.57;;;;;;;16.31;59.28;101140.22;4940180;28;107794;-47
2022/05/25 06:44:32;;;;;;;5.97;5.47;;;;;;;16.35;58.81;101137.16;4936757;28;97299;-48
2022/05/25 06:46:58;;;;;;;5.03;4.50;;;;;;;16.42;59.14;101140.06;4933310;28;97099;-48
2022/05/25 06:49:23;;;;;;;6.67;5.40;;;;;;;16.49;58.96;101145.06;4937311;28;97143;-48
2022/05/25 06:51:48;;;;;;;5.70;5.10;;;;;;;16.58;58.97;101143.97;4942560;28;97259;-48
2022/05/25 06:54:15;;;;;;;5.50;4.90;;;;;;;16.67;58.88;101146.41;4944155;28;96827;-47
2022/05/25 06:56:41;;;;;;;6.10;5.60;;;;;;;16.76;58.71;101146.06;4938218;28;97829;-48
2022/05/25 06:59:07;;;;;;;5.90;5.40;;;;;;;16.84;58.59;101151.78;4941606;28;97214;-48
2022/05/25 07:01:34;;;;;;;6.50;5.87;;;;;;;16.88;58.57;101149.47;4936573;28;97093;-48
2022/05/25 07:03:59;;;;;;;6.60;6.00;;;;;;;16.93;58.49;101151.41;4938815;28;97472;-48
2022/05/25 07:06:25;;;;;;;8.00;5.83;;;;;;;17.00;58.63;101153.59;4937093;28;97080;-48
2022/05/25 07:08:51;;;;;;;6.20;5.70;;;;;;;17.11;58.62;101150.66;4941838;28;96891;-48
2022/05/25 07:11:17;;;;;;;6.30;5.70;;;;;;;17.21;58.47;101160.16;4943728;28;96902;-48
2022/05/25 07:13:43;;;;;;;5.67;5.17;;;;;;;17.31;58.27;101160.53;4938371;28;97433;-48
2022/05/25 07:16:12;;;;;;;6.37;4.70;;;;;;;17.44;58.05;101161.34;4943637;28;97356;-47
2022/05/25 07:18:38;;;;;;;5.53;4.50;;;;;;;17.54;57.94;101158.97;4942780;28;96740;-48
2022/05/25 07:21:14;;;;;;;6.30;4.57;;;;;;;17.63;57.82;101162.09;4940880;28;97248;-48
2022/05/25 07:23:42;;;;;;;4.33;3.87;;;;;;;17.73;57.82;101157.66;4938495;28;97419;-48
2022/05/25 07:26:08;;;;;;;4.60;4.20;;;;;;;17.85;57.49;101161.00;4939501;28;98471;-47
2022/05/25 07:28:35;;;;;;;5.33;4.37;;;;;;;17.89;57.58;101167.00;4959803;22;98059;-52
2022/05/25 07:31:07;;;;;;;5.10;4.60;;;;;;;17.89;57.04;101170.53;4939442;28;97060;-52
2022/05/25 07:33:34;;;;;;;4.37;4.00;;;;;;;17.86;57.02;101168.06;4938165;28;100560;-51
2022/05/25 07:36:00;;;;;;;4.33;3.97;;;;;;;17.88;56.72;101176.66;4941161;28;97051;-51
2022/05/25 07:38:28;;;;;;;5.07;3.87;;;;;;;17.89;56.82;101173.31;4939472;28;96946;-51
2022/05/25 07:40:54;;;;;;;5.23;3.90;;;;;;;17.98;56.63;101177.72;4942787;28;97479;-51
2022/05/25 07:43:21;;;;;;;3.80;3.60;;;;;;;18.10;56.43;101175.53;4938989;28;97409;-50
2022/05/25 07:45:47;;;;;;;4.17;3.87;;;;;;;18.18;56.08;101176.41;4938252;28;97807;-50
2022/05/25 07:48:13;;;;;;;3.10;2.90;;;;;;;18.27;56.13;101184.34;4938448;28;98761;-52
2022/05/25 07:50:40;;;;;;;3.87;2.87;;;;;;;18.43;55.83;101186.09;4938410;28;96928;-52
2022/05/25 07:55:51;;;;;;;3.40;2.63;;;;;;;18.63;55.30;101177.88;4940336;28;100275;-52
2022/05/25 07:58:17;;;;;;;3.03;2.73;;;;;;;18.79;55.15;101172.50;4938920;28;115308;-51
2022/05/25 08:00:42;;;;;;;2.80;2.60;;;;;;;18.90;54.89;101175.06;4929535;28;96947;-50
2022/05/25 08:05:54;;;;;;;2.77;2.57;;;;;;;19.06;54.12;101174.75;4931051;28;97167;-51
2022/05/25 08:08:24;;;;;;;2.80;2.60;;;;;;;19.04;54.06;101180.13;4935172;28;98090;-51
2022/05/25 08:11:11;;;;;;;4.80;2.27;;;;;;;18.94;53.48;101179.03;4936861;28;97468;-51
2022/05/25 08:13:41;;;;;;;1.90;1.80;;;;;;;18.99;54.34;101174.63;4938518;28;101120;-51
2022/05/25 08:16:08;;;;;;;2.00;1.90;;;;;;;19.08;54.14;101171.41;4926875;28;101823;-52
2022/05/25 08:18:34;;;;;;;1.90;1.70;;;;;;;19.16;54.07;101181.38;4940939;28;97433;-51
2022/05/25 08:20:59;;;;;;;1.33;1.23;;;;;;;19.17;53.58;101176.53;4934992;28;99936;-51
2022/05/25 08:23:25;;;;;;;1.10;1.10;;;;;;;19.15;53.25;101174.31;4935358;28;98687;-51
2022/05/25 08:25:50;;;;;;;2.40;1.10;;;;;;;19.15;53.10;101176.34;4933961;28;97392;-51
2022/05/25 08:28:15;;;;;;;1.10;1.10;;;;;;;19.27;52.95;101183.91;4932656;28;96705;-52
2022/05/25 08:30:43;;;;;;;1.30;1.20;;;;;;;19.44;52.66;101178.75;4927167;28;97059;-51
2022/05/25 08:33:09;;;;;;;1.67;1.40;;;;;;;19.59;52.44;101189.34;4937795;28;98695;-50
2022/05/25 08:35:35;;;;;;;1.53;1.20;;;;;;;19.61;51.69;101183.22;4937640;28;97130;-51
2022/05/25 08:38:00;;;;;;;1.23;1.13;;;;;;;19.51;51.94;101177.31;4936162;28;97260;-52
2022/05/25 08:40:28;;;;;;;1.20;1.00;;;;;;;19.41;51.86;101188.22;4941919;28;97278;-51
2022/05/25 08:43:02;;;;;;;2.20;1.43;;;;;;;19.47;51.62;101173.38;4931302;28;97580;-51
2022/05/25 08:45:36;;;;;;;1.40;1.17;;;;;;;19.57;51.29;101174.44;4931298;28;97290;-52
2022/05/25 08:48:05;;;;;;;2.17;1.20;;;;;;;19.68;51.32;101176.97;4933175;28;97054;-50
2022/05/25 08:50:31;;;;;;;1.50;1.40;;;;;;;19.78;51.19;101186.34;4936543;28;97020;-51
2022/05/25 08:52:58;;;;;;;1.27;1.17;;;;;;;19.71;51.05;101181.44;4934652;28;98040;-52
2022/05/25 08:55:54;;;;;;;1.07;0.97;;;;;;;19.60;49.67;101176.13;4932858;28;98569;-51
2022/05/25 08:58:23;;;;;;;0.63;0.63;;;;;;;19.51;50.85;101182.16;4932974;28;97187;-51
2022/05/25 09:00:52;;;;;;;0.80;0.70;;;;;;;19.55;51.02;101177.00;4928890;28;97244;-51
2022/05/25 09:03:38;;;;;;;1.90;0.60;;;;;;;19.74;49.96;101180.38;4939372;28;96779;-52
2022/05/25 09:06:15;;;;;;;0.60;0.60;;;;;;;19.95;49.23;101175.53;4934922;28;100274;-53
2022/05/25 09:08:53;;;;;;;0.80;0.70;;;;;;;20.22;49.92;101170.56;4935712;28;108456;-51
2022/05/25 09:11:29;;;;;;;1.30;0.90;;;;;;;20.49;48.93;101163.47;4931698;28;97354;-51
2022/05/25 09:14:06;;;;;;;1.20;0.80;;;;;;;20.74;48.75;101168.13;4941774;28;97771;-52
2022/05/25 09:16:36;;;;;;;0.90;0.67;;;;;;;21.02;49.17;101172.94;4930372;28;101687;-52
2022/05/25 09:19:10;;;;;;;1.53;0.50;;;;;;;21.23;48.64;101161.66;4933785;28;98907;-52
2022/05/25 09:22:00;;;;;;;1.40;0.60;;;;;;;21.49;47.15;101169.78;4935439;28;96952;-52
2022/05/25 09:24:27;;;;;;;1.77;1.03;;;;;;;21.64;48.13;101173.31;4926415;28;102280;-52
2022/05/25 09:26:53;;;;;;;0.60;0.60;;;;;;;21.63;47.80;101165.50;4934478;28;98406;-52
2022/05/25 09:29:20;;;;;;;1.00;0.80;;;;;;;21.43;47.88;101169.19;4933835;28;97139;-54
2022/05/25 09:31:53;;;;;;;1.23;0.70;;;;;;;21.34;46.99;101173.25;4937646;28;97083;-51
2022/05/25 09:34:49;;;;;;;1.03;0.60;;;;;;;21.45;46.29;101167.31;4919754;28;101500;-51
2022/05/25 09:37:17;;;;;;;0.70;0.57;;;;;;;21.42;48.08;101167.69;4933963;28;101625;-52
2022/05/25 09:39:45;;;;;;;0.80;0.60;;;;;;;21.69;48.06;101168.13;4933950;28;99198;-51
2022/05/25 09:42:17;;;;;;;0.93;0.63;;;;;;;21.99;46.92;101177.34;4931148;28;97274;-51
2022/05/25 09:44:47;;;;;;;4.40;0.77;;;;;;;21.98;46.38;101175.09;4936449;28;97288;-51
2022/05/25 09:47:21;;;;;;;1.03;0.60;;;;;;;22.02;46.70;101178.25;4935538;28;98604;-51
2022/05/25 09:49:49;;;;;;;1.70;0.83;;;;;;;22.10;46.69;101171.38;4934795;28;97055;-51
2022/05/25 09:52:22;;;;;;;1.73;0.90;;;;;;;22.15;46.28;101162.00;4932578;28;97376;-50
2022/05/25 09:54:57;;;;;;;1.00;0.60;;;;;;;22.36;45.46;101165.38;4934263;28;97503;-52
2022/05/25 09:57:25;;;;;;;5.43;0.77;;;;;;;22.60;46.30;101169.66;4935386;28;97201;-50
2022/05/25 10:00:00;;;;;;;1.47;0.80;;;;;;;22.85;45.22;101167.72;4931400;28;96929;-52
2022/05/25 10:02:36;;;;;;;0.60;0.50;;;;;;;23.01;44.23;101169.16;4936877;28;96934;-52
2022/05/25 10:05:23;;;;;;;1.50;1.20;;;;;;;23.08;44.00;101173.25;4935109;28;97453;-52
2022/05/25 10:07:55;;;;;;;2.23;0.97;;;;;;;23.06;44.62;101170.25;4926402;28;101850;-51
2022/05/25 10:10:33;;;;;;;0.80;0.73;;;;;;;23.01;43.51;101163.53;4936577;28;97610;-51
2022/05/25 10:13:11;;;;;;;1.10;0.83;;;;;;;23.03;44.72;101165.78;4939148;28;97276;-52
2022/05/25 10:15:37;;;;;;;1.67;1.00;;;;;;;23.01;44.91;101168.41;4937534;28;97345;-51
2022/05/25 10:18:04;;;;;;;2.00;0.60;;;;;;;23.08;44.85;101174.00;4936724;28;98519;-50
2022/05/25 10:20:41;;;;;;;1.30;1.20;;;;;;;22.98;43.53;101175.16;4938541;28;97356;-51
2022/05/25 10:23:11;;;;;;;3.27;0.93;;;;;;;22.86;44.24;101174.81;4934017;28;109616;-50
2022/05/25 10:25:45;;;;;;;1.00;0.93;;;;;;;22.67;43.57;101180.09;4937942;28;98140;-54
2022/05/25 10:28:32;;;;;;;2.30;1.10;;;;;;;22.43;43.09;101174.34;4935392;28;97887;-51
2022/05/25 10:36:56;;;;;;;2.10;1.30;;;;;;;22.21;43.73;101173.03;4938943;28;100594;-50
2022/05/25 10:39:27;;;;;;;1.40;1.30;;;;;;;22.33;44.99;101174.91;4934907;28;100402;-50
2022/05/25 10:42:02;;;;;;;1.23;0.90;;;;;;;22.54;44.03;101155.03;4941694;28;97090;-51
2022/05/25 10:44:34;;;;;;;1.53;0.90;;;;;;;22.63;43.83;101162.19;4938695;28;97665;-50
2022/05/25 10:47:00;;;;;;;1.37;1.00;;;;;;;22.58;44.54;101157.47;4936131;28;98574;-51
2022/05/25 10:49:38;;;;;;;2.33;1.10;;;;;;;22.69;43.86;101155.06;4939320;28;120398;-50
2022/05/25 10:52:20;;;;;;;1.23;1.13;;;;;;;22.71;44.65;101157.28;4939257;28;97920;-49
2022/05/25 10:54:50;;;;;;;2.50;1.33;;;;;;;22.56;44.63;101160.84;4935521;28;97846;-52
2022/05/25 10:57:37;;;;;;;1.13;1.03;;;;;;;22.43;42.97;101154.69;4938202;28;96821;-50
2022/05/25 11:00:12;;;;;;;1.80;1.27;;;;;;;22.32;43.48;101150.97;4943413;28;100893;-50
2022/05/25 11:03:02;;;;;;;2.73;0.77;;;;;;;22.38;43.77;101143.13;4939777;28;97337;-50
2022/05/25 11:05:52;;;;;;;1.00;0.90;;;;;;;22.64;42.68;101149.63;4939356;28;97472;-50
2022/05/25 11:08:45;;;;;;;3.53;1.30;;;;;;;22.83;40.70;101155.56;4937705;28;103180;-51
2022/05/25 11:11:16;;;;;;;2.37;1.20;;;;;;;22.94;43.17;101153.09;4935222;28;100454;-50
2022/05/25 11:13:56;;;;;;;1.07;0.97;;;;;;;23.00;42.70;101159.22;4918860;28;97339;-50
2022/05/25 11:16:29;;;;;;;1.10;0.97;;;;;;;23.15;42.55;101166.09;4913649;28;97890;-52
2022/05/25 11:19:07;;;;;;;1.40;0.87;;;;;;;23.14;42.20;101156.94;4920222;28;98588;-51
2022/05/25 11:21:51;;;;;;;0.80;0.80;;;;;;;23.09;41.63;101155.06;4914945;28;97040;-51
2022/05/25 11:24:43;;;;;;;0.80;0.80;;;;;;;22.95;42.23;101160.22;4914275;28;97920;-50
2022/05/25 11:27:18;;;;;;;1.97;0.70;;;;;;;22.90;42.19;101151.97;4916403;28;97286;-50
2022/05/25 11:29:46;;;;;;;1.17;0.83;;;;;;;23.02;43.11;101145.38;4936864;28;123174;-52
2022/05/25 11:32:25;;;;;;;1.13;0.70;;;;;;;23.32;41.63;101155.72;4941509;28;99611;-51
2022/05/25 11:35:12;;;;;;;0.73;0.73;;;;;;;23.63;42.28;101148.63;4943421;28;97361;-50
2022/05/25 11:38:08;;;;;;;1.10;0.83;;;;;;;23.89;41.64;101152.94;4936563;28;97696;-51
2022/05/25 11:40:52;;;;;;;1.20;0.87;;;;;;;24.07;40.42;101154.50;4928925;28;100777;-50
2022/05/25 11:43:55;;;;;;;1.13;0.90;;;;;;;24.06;40.31;101143.84;4929383;28;101590;-50
2022/05/25 11:46:40;;;;;;;1.67;0.70;;;;;;;24.16;40.30;101150.28;4935490;28;98524;-50
2022/05/25 11:49:15;;;;;;;0.70;0.60;;;;;;;24.15;41.09;101148.81;4936116;28;97659;-51
2022/05/25 11:51:49;;;;;;;0.73;0.73;;;;;;;24.12;41.42;101145.09;4937761;28;96882;-50
2022/05/25 11:54:38;;;;;;;1.07;0.73;;;;;;;24.17;39.99;101144.13;4932371;28;97506;-49
2022/05/25 11:57:22;;;;;;;1.47;1.00;;;;;;;24.06;39.63;101152.28;4938940;28;97458;-51
2022/05/25 12:00:16;;;;;;;0.67;0.67;;;;;;;23.93;39.77;101156.09;4934162;28;101611;-50
2022/05/25 12:03:00;;;;;;;0.90;0.80;;;;;;;23.77;39.91;101140.66;4931709;28;101892;-50
2022/05/25 12:05:35;;;;;;;2.40;0.80;;;;;;;23.82;40.99;101148.88;4937069;28;116508;-50
2022/05/25 12:08:19;;;;;;;1.03;0.80;;;;;;;23.87;39.15;101138.72;4932690;28;96901;-51